sensor_id;sensor_type;location;lat;lon;timestamp;temperature;humidity
15083;DHT22;7640;53.116;6.878;2022-10-16T00:02:04;13.30;99.90
15083;DHT22;7640;53.116;6.878;2022-10-16T00:04:37;13.30;99.90
15083;DHT22;7640;53.116;6.878;2022-10-16T00:07:12;13.30;99.90
15083;DHT22;7640;53.116;6.878;2022-10-16T00:10:03;13.30;99.90
15083;DHT22;7640;53.116;6.878;2022-10-16T00:12:53;13.30;99.90
15083;DHT22;7640;53.116;6.878;2022-10-16T00:15:28;13.30;99.90
15083;DHT22;7640;53.116;6.878;2022-10-16T00:18:00;13.20;99.90
15083;DHT22;7640;53.116;6.878;2022-10-16T00:20:36;13.50;99.90
15083;DHT22;7640;53.116;6.878;2022-10-16T00:23:16;13.30;99.90
15083;DHT22;7640;53.116;6.878;2022-10-16T00:29:27;13.20;99.90
15083;DHT22;7640;53.116;6.878;2022-10-16T00:32:12;13.20;99.90
15083;DHT22;7640;53.116;6.878;2022-10-16T00:35:09;13.20;99.90
15083;DHT22;7640;53.116;6.878;2022-10-16T00:37:57;13.20;99.90
15083;DHT22;7640;53.116;6.878;2022-10-16T00:40:42;13.20;99.90
15083;DHT22;7640;53.116;6.878;2022-10-16T00:43:39;13.20;99.90
15083;DHT22;7640;53.116;6.878;2022-10-16T00:46:21;13.20;99.90
15083;DHT22;7640;53.116;6.878;2022-10-16T00:51:51;13.20;99.90
15083;DHT22;7640;53.116;6.878;2022-10-16T00:54:33;13.10;99.90
15083;DHT22;7640;53.116;6.878;2022-10-16T00:57:11;13.10;99.90
15083;DHT22;7640;53.116;6.878;2022-10-16T00:59:48;13.10;99.90
15083;DHT22;7640;53.116;6.878;2022-10-16T01:02:33;13.10;99.90
15083;DHT22;7640;53.116;6.878;2022-10-16T01:05:23;13.10;99.90
15083;DHT22;7640;53.116;6.878;2022-10-16T01:08:09;13.10;99.90
15083;DHT22;7640;53.116;6.878;2022-10-16T01:10:54;12.90;99.90
15083;DHT22;7640;53.116;6.878;2022-10-16T01:13:37;13.20;99.90
15083;DHT22;7640;53.116;6.878;2022-10-16T01:16:41;13.10;99.90
15083;DHT22;7640;53.116;6.878;2022-10-16T01:20:01;13.10;99.90
15083;DHT22;7640;53.116;6.878;2022-10-16T01:23:38;13.20;99.90
15083;DHT22;7640;53.116;6.878;2022-10-16T01:26:48;13.20;99.90
15083;DHT22;7640;53.116;6.878;2022-10-16T01:30:15;13.10;99.90
15083;DHT22;7640;53.116;6.878;2022-10-16T01:32:50;13.10;99.90
15083;DHT22;7640;53.116;6.878;2022-10-16T01:35:39;13.10;99.90
15083;DHT22;7640;53.116;6.878;2022-10-16T01:38:21;13.10;99.90
15083;DHT22;7640;53.116;6.878;2022-10-16T01:41:09;13.20;99.90
15083;DHT22;7640;53.116;6.878;2022-10-16T01:44:09;13.20;99.90
15083;DHT22;7640;53.116;6.878;2022-10-16T01:47:15;13.20;99.90
15083;DHT22;7640;53.116;6.878;2022-10-16T01:50:20;13.20;99.90
15083;DHT22;7640;53.116;6.878;2022-10-16T01:53:24;13.20;99.90
15083;DHT22;7640;53.116;6.878;2022-10-16T01:56:12;13.20;99.90
15083;DHT22;7640;53.116;6.878;2022-10-16T01:58:55;13.20;99.90
15083;DHT22;7640;53.116;6.878;2022-10-16T02:01:42;13.20;99.90
15083;DHT22;7640;53.116;6.878;2022-10-16T02:04:42;13.20;99.90
15083;DHT22;7640;53.116;6.878;2022-10-16T02:07:16;13.20;99.90
15083;DHT22;7640;53.116;6.878;2022-10-16T02:09:50;13.20;99.90
15083;DHT22;7640;53.116;6.878;2022-10-16T02:12:48;13.20;99.90
15083;DHT22;7640;53.116;6.878;2022-10-16T02:15:25;13.20;99.90
15083;DHT22;7640;53.116;6.878;2022-10-16T02:18:02;13.40;99.90
15083;DHT22;7640;53.116;6.878;2022-10-16T02:20:46;13.20;99.90
15083;DHT22;7640;53.116;6.878;2022-10-16T02:23:27;13.20;99.90
15083;DHT22;7640;53.116;6.878;2022-10-16T02:26:35;13.20;99.90
15083;DHT22;7640;53.116;6.878;2022-10-16T02:29:12;13.30;99.90
15083;DHT22;7640;53.116;6.878;2022-10-16T02:31:50;13.30;99.90
15083;DHT22;7640;53.116;6.878;2022-10-16T02:35:04;13.30;99.90
15083;DHT22;7640;53.116;6.878;2022-10-16T02:37:57;13.30;99.90
15083;DHT22;7640;53.116;6.878;2022-10-16T02:40:36;13.40;99.90
15083;DHT22;7640;53.116;6.878;2022-10-16T02:43:15;13.40;99.90
15083;DHT22;7640;53.116;6.878;2022-10-16T02:45:47;13.40;99.90
15083;DHT22;7640;53.116;6.878;2022-10-16T02:48:24;13.50;99.90
15083;DHT22;7640;53.116;6.878;2022-10-16T02:50:57;13.50;99.90
15083;DHT22;7640;53.116;6.878;2022-10-16T02:54:04;13.50;99.90
15083;DHT22;7640;53.116;6.878;2022-10-16T02:56:56;13.60;99.90
15083;DHT22;7640;53.116;6.878;2022-10-16T02:59:26;13.60;99.90
15083;DHT22;7640;53.116;6.878;2022-10-16T03:02:00;13.60;99.90
15083;DHT22;7640;53.116;6.878;2022-10-16T03:04:40;13.60;99.90
15083;DHT22;7640;53.116;6.878;2022-10-16T03:07:13;13.80;99.90
15083;DHT22;7640;53.116;6.878;2022-10-16T03:10:08;13.90;99.90
15083;DHT22;7640;53.116;6.878;2022-10-16T03:12:42;13.70;99.90
15083;DHT22;7640;53.116;6.878;2022-10-16T03:15:46;13.70;99.90
15083;DHT22;7640;53.116;6.878;2022-10-16T03:18:24;13.70;99.90
15083;DHT22;7640;53.116;6.878;2022-10-16T03:21:10;13.70;99.90
15083;DHT22;7640;53.116;6.878;2022-10-16T03:24:00;13.70;99.90
15083;DHT22;7640;53.116;6.878;2022-10-16T03:26:39;13.80;99.90
15083;DHT22;7640;53.116;6.878;2022-10-16T03:29:11;13.80;99.90
15083;DHT22;7640;53.116;6.878;2022-10-16T03:32:04;13.80;99.90
15083;DHT22;7640;53.116;6.878;2022-10-16T03:34:47;13.80;99.90
15083;DHT22;7640;53.116;6.878;2022-10-16T03:37:26;13.80;99.90
15083;DHT22;7640;53.116;6.878;2022-10-16T03:40:17;13.80;99.90
15083;DHT22;7640;53.116;6.878;2022-10-16T03:43:13;13.80;99.90
15083;DHT22;7640;53.116;6.878;2022-10-16T03:45:45;13.80;99.90
15083;DHT22;7640;53.116;6.878;2022-10-16T03:48:24;13.80;99.90
15083;DHT22;7640;53.116;6.878;2022-10-16T03:50:57;13.80;99.90
15083;DHT22;7640;53.116;6.878;2022-10-16T03:53:33;13.80;99.90
15083;DHT22;7640;53.116;6.878;2022-10-16T03:56:16;13.70;99.90
15083;DHT22;7640;53.116;6.878;2022-10-16T03:59:09;13.80;99.90
15083;DHT22;7640;53.116;6.878;2022-10-16T04:01:47;13.70;99.90
15083;DHT22;7640;53.116;6.878;2022-10-16T04:04:33;13.70;99.90
15083;DHT22;7640;53.116;6.878;2022-10-16T04:07:08;13.70;99.90
15083;DHT22;7640;53.116;6.878;2022-10-16T04:09:49;13.70;99.90
15083;DHT22;7640;53.116;6.878;2022-10-16T04:12:44;13.70;99.90
15083;DHT22;7640;53.116;6.878;2022-10-16T04:15:33;13.60;99.90
15083;DHT22;7640;53.116;6.878;2022-10-16T04:18:08;13.60;99.90
15083;DHT22;7640;53.116;6.878;2022-10-16T04:21:03;14.00;99.90
15083;DHT22;7640;53.116;6.878;2022-10-16T04:23:37;13.50;99.90
15083;DHT22;7640;53.116;6.878;2022-10-16T04:26:08;13.40;99.90
15083;DHT22;7640;53.116;6.878;2022-10-16T04:28:54;13.40;99.90
15083;DHT22;7640;53.116;6.878;2022-10-16T04:31:43;13.40;99.90
15083;DHT22;7640;53.116;6.878;2022-10-16T04:34:15;13.40;99.90
15083;DHT22;7640;53.116;6.878;2022-10-16T04:36:52;13.40;99.90
15083;DHT22;7640;53.116;6.878;2022-10-16T04:39:41;13.40;99.90
15083;DHT22;7640;53.116;6.878;2022-10-16T04:42:23;13.40;99.90
15083;DHT22;7640;53.116;6.878;2022-10-16T04:44:58;13.50;99.90
15083;DHT22;7640;53.116;6.878;2022-10-16T04:47:41;13.50;99.90
15083;DHT22;7640;53.116;6.878;2022-10-16T04:50:14;13.50;99.90
15083;DHT22;7640;53.116;6.878;2022-10-16T04:52:52;13.50;99.90
15083;DHT22;7640;53.116;6.878;2022-10-16T04:55:33;13.50;99.90
15083;DHT22;7640;53.116;6.878;2022-10-16T04:58:24;13.50;99.90
15083;DHT22;7640;53.116;6.878;2022-10-16T05:01:09;13.50;99.90
15083;DHT22;7640;53.116;6.878;2022-10-16T05:03:51;13.50;99.90
15083;DHT22;7640;53.116;6.878;2022-10-16T05:06:30;13.50;99.90
15083;DHT22;7640;53.116;6.878;2022-10-16T05:09:20;13.60;99.90
15083;DHT22;7640;53.116;6.878;2022-10-16T05:11:58;13.60;99.90
15083;DHT22;7640;53.116;6.878;2022-10-16T05:14:32;13.60;99.90
15083;DHT22;7640;53.116;6.878;2022-10-16T05:17:07;13.70;99.90
15083;DHT22;7640;53.116;6.878;2022-10-16T05:19:46;14.00;99.90
15083;DHT22;7640;53.116;6.878;2022-10-16T05:22:25;13.80;99.90
15083;DHT22;7640;53.116;6.878;2022-10-16T05:25:00;13.80;99.90
15083;DHT22;7640;53.116;6.878;2022-10-16T05:28:17;13.80;99.90
15083;DHT22;7640;53.116;6.878;2022-10-16T05:31:09;13.80;99.90
15083;DHT22;7640;53.116;6.878;2022-10-16T05:33:48;13.80;99.90
15083;DHT22;7640;53.116;6.878;2022-10-16T05:36:51;13.80;99.90
15083;DHT22;7640;53.116;6.878;2022-10-16T05:39:42;13.90;99.90
15083;DHT22;7640;53.116;6.878;2022-10-16T05:42:26;13.90;99.90
15083;DHT22;7640;53.116;6.878;2022-10-16T05:45:00;13.90;99.90
15083;DHT22;7640;53.116;6.878;2022-10-16T05:47:39;13.90;99.90
15083;DHT22;7640;53.116;6.878;2022-10-16T05:50:26;13.90;99.90
15083;DHT22;7640;53.116;6.878;2022-10-16T05:53:40;13.90;99.90
15083;DHT22;7640;53.116;6.878;2022-10-16T05:56:18;14.00;99.90
15083;DHT22;7640;53.116;6.878;2022-10-16T05:58:51;14.00;99.90
15083;DHT22;7640;53.116;6.878;2022-10-16T06:01:31;13.90;99.90
15083;DHT22;7640;53.116;6.878;2022-10-16T06:04:20;13.90;99.90
15083;DHT22;7640;53.116;6.878;2022-10-16T06:06:51;13.90;99.90
15083;DHT22;7640;53.116;6.878;2022-10-16T06:09:33;13.90;99.90
15083;DHT22;7640;53.116;6.878;2022-10-16T06:12:19;13.90;99.90
15083;DHT22;7640;53.116;6.878;2022-10-16T06:15:00;13.90;99.90
15083;DHT22;7640;53.116;6.878;2022-10-16T06:17:38;13.90;99.90
15083;DHT22;7640;53.116;6.878;2022-10-16T06:20:26;13.90;99.90
15083;DHT22;7640;53.116;6.878;2022-10-16T06:23:18;13.90;99.90
15083;DHT22;7640;53.116;6.878;2022-10-16T06:25:53;13.90;99.90
15083;DHT22;7640;53.116;6.878;2022-10-16T06:28:41;14.00;99.90
15083;DHT22;7640;53.116;6.878;2022-10-16T06:31:17;13.90;99.90
15083;DHT22;7640;53.116;6.878;2022-10-16T06:34:03;13.90;99.90
15083;DHT22;7640;53.116;6.878;2022-10-16T06:36:39;13.90;99.90
15083;DHT22;7640;53.116;6.878;2022-10-16T06:39:11;13.90;99.90
15083;DHT22;7640;53.116;6.878;2022-10-16T06:41:44;13.90;99.90
15083;DHT22;7640;53.116;6.878;2022-10-16T06:44:23;13.90;99.90
15083;DHT22;7640;53.116;6.878;2022-10-16T06:47:12;14.00;99.90
15083;DHT22;7640;53.116;6.878;2022-10-16T06:49:56;14.00;99.90
15083;DHT22;7640;53.116;6.878;2022-10-16T06:52:51;14.00;99.90
15083;DHT22;7640;53.116;6.878;2022-10-16T06:55:35;14.00;99.90
15083;DHT22;7640;53.116;6.878;2022-10-16T06:58:10;14.00;99.90
15083;DHT22;7640;53.116;6.878;2022-10-16T07:00:57;14.00;99.90
15083;DHT22;7640;53.116;6.878;2022-10-16T07:03:28;14.00;99.90
15083;DHT22;7640;53.116;6.878;2022-10-16T07:06:43;14.00;99.90
15083;DHT22;7640;53.116;6.878;2022-10-16T07:09:33;14.10;99.90
15083;DHT22;7640;53.116;6.878;2022-10-16T07:12:19;14.10;99.90
15083;DHT22;7640;53.116;6.878;2022-10-16T07:15:25;14.20;99.90
15083;DHT22;7640;53.116;6.878;2022-10-16T07:17:58;14.30;99.90
15083;DHT22;7640;53.116;6.878;2022-10-16T07:20:33;14.30;99.90
15083;DHT22;7640;53.116;6.878;2022-10-16T07:23:21;14.40;99.90
15083;DHT22;7640;53.116;6.878;2022-10-16T07:25:59;14.40;99.90
15083;DHT22;7640;53.116;6.878;2022-10-16T07:28:50;14.40;99.90
15083;DHT22;7640;53.116;6.878;2022-10-16T07:31:24;14.50;99.90
15083;DHT22;7640;53.116;6.878;2022-10-16T07:34:26;14.70;99.90
15083;DHT22;7640;53.116;6.878;2022-10-16T07:37:01;14.60;99.90
15083;DHT22;7640;53.116;6.878;2022-10-16T07:39:48;14.60;99.90
15083;DHT22;7640;53.116;6.878;2022-10-16T07:45:50;14.70;99.90
15083;DHT22;7640;53.116;6.878;2022-10-16T07:48:33;14.80;99.90
15083;DHT22;7640;53.116;6.878;2022-10-16T07:51:25;14.80;99.90
15083;DHT22;7640;53.116;6.878;2022-10-16T07:54:18;14.90;99.90
15083;DHT22;7640;53.116;6.878;2022-10-16T07:57:13;14.90;99.90
15083;DHT22;7640;53.116;6.878;2022-10-16T07:59:48;15.00;99.90
15083;DHT22;7640;53.116;6.878;2022-10-16T08:02:23;15.00;99.90
15083;DHT22;7640;53.116;6.878;2022-10-16T08:05:31;15.10;99.90
15083;DHT22;7640;53.116;6.878;2022-10-16T08:08:13;15.10;99.90
15083;DHT22;7640;53.116;6.878;2022-10-16T08:10:57;15.10;99.90
15083;DHT22;7640;53.116;6.878;2022-10-16T08:13:38;15.00;99.90
15083;DHT22;7640;53.116;6.878;2022-10-16T08:16:27;15.00;99.90
15083;DHT22;7640;53.116;6.878;2022-10-16T08:19:00;15.00;99.90
15083;DHT22;7640;53.116;6.878;2022-10-16T08:22:00;15.00;99.90
15083;DHT22;7640;53.116;6.878;2022-10-16T08:24:50;14.90;99.90
15083;DHT22;7640;53.116;6.878;2022-10-16T08:27:24;14.90;99.90
15083;DHT22;7640;53.116;6.878;2022-10-16T08:30:23;14.90;99.90
15083;DHT22;7640;53.116;6.878;2022-10-16T08:33:15;14.90;99.90
15083;DHT22;7640;53.116;6.878;2022-10-16T08:35:54;15.00;99.90
15083;DHT22;7640;53.116;6.878;2022-10-16T08:38:36;15.00;99.90
15083;DHT22;7640;53.116;6.878;2022-10-16T08:41:24;15.20;99.90
15083;DHT22;7640;53.116;6.878;2022-10-16T08:44:51;15.10;99.90
15083;DHT22;7640;53.116;6.878;2022-10-16T08:47:43;15.10;99.90
15083;DHT22;7640;53.116;6.878;2022-10-16T08:50:27;15.10;99.90
15083;DHT22;7640;53.116;6.878;2022-10-16T08:53:04;15.10;99.90
15083;DHT22;7640;53.116;6.878;2022-10-16T08:55:54;15.20;99.90
15083;DHT22;7640;53.116;6.878;2022-10-16T08:58:30;15.30;99.90
15083;DHT22;7640;53.116;6.878;2022-10-16T09:01:09;15.30;99.90
15083;DHT22;7640;53.116;6.878;2022-10-16T09:03:54;15.40;99.90
15083;DHT22;7640;53.116;6.878;2022-10-16T09:07:11;15.40;99.90
15083;DHT22;7640;53.116;6.878;2022-10-16T09:09:59;15.50;99.90
15083;DHT22;7640;53.116;6.878;2022-10-16T09:12:38;15.50;99.90
15083;DHT22;7640;53.116;6.878;2022-10-16T09:15:24;15.60;99.90
15083;DHT22;7640;53.116;6.878;2022-10-16T09:18:19;15.60;99.90
15083;DHT22;7640;53.116;6.878;2022-10-16T09:21:06;15.70;99.90
15083;DHT22;7640;53.116;6.878;2022-10-16T09:23:46;15.60;99.90
15083;DHT22;7640;53.116;6.878;2022-10-16T09:26:24;15.80;99.90
15083;DHT22;7640;53.116;6.878;2022-10-16T09:29:09;15.90;99.90
15083;DHT22;7640;53.116;6.878;2022-10-16T09:31:47;15.90;99.90
15083;DHT22;7640;53.116;6.878;2022-10-16T09:34:39;16.00;99.90
15083;DHT22;7640;53.116;6.878;2022-10-16T09:37:19;16.10;99.90
15083;DHT22;7640;53.116;6.878;2022-10-16T09:39:50;16.20;99.90
15083;DHT22;7640;53.116;6.878;2022-10-16T09:42:36;16.30;99.90
15083;DHT22;7640;53.116;6.878;2022-10-16T09:45:23;16.30;99.90
15083;DHT22;7640;53.116;6.878;2022-10-16T09:47:53;16.40;99.90
15083;DHT22;7640;53.116;6.878;2022-10-16T09:50:30;16.40;99.90
15083;DHT22;7640;53.116;6.878;2022-10-16T09:53:19;16.50;99.90
15083;DHT22;7640;53.116;6.878;2022-10-16T09:56:20;16.60;99.90
15083;DHT22;7640;53.116;6.878;2022-10-16T09:58:58;16.70;99.90
15083;DHT22;7640;53.116;6.878;2022-10-16T10:01:51;16.70;99.90
15083;DHT22;7640;53.116;6.878;2022-10-16T10:04:41;16.70;99.90
15083;DHT22;7640;53.116;6.878;2022-10-16T10:07:21;16.80;99.90
15083;DHT22;7640;53.116;6.878;2022-10-16T10:09:58;16.90;99.90
15083;DHT22;7640;53.116;6.878;2022-10-16T10:12:30;17.00;99.90
15083;DHT22;7640;53.116;6.878;2022-10-16T10:15:06;17.10;99.90
15083;DHT22;7640;53.116;6.878;2022-10-16T10:17:50;17.10;99.90
15083;DHT22;7640;53.116;6.878;2022-10-16T10:20:26;17.10;99.90
15083;DHT22;7640;53.116;6.878;2022-10-16T10:22:56;17.00;99.90
15083;DHT22;7640;53.116;6.878;2022-10-16T10:25:43;17.10;99.90
15083;DHT22;7640;53.116;6.878;2022-10-16T10:28:33;17.10;99.90
15083;DHT22;7640;53.116;6.878;2022-10-16T10:31:20;17.00;99.90
15083;DHT22;7640;53.116;6.878;2022-10-16T10:37:27;17.00;99.90
15083;DHT22;7640;53.116;6.878;2022-10-16T10:40:09;17.20;99.90
15083;DHT22;7640;53.116;6.878;2022-10-16T10:43:00;17.20;99.90
15083;DHT22;7640;53.116;6.878;2022-10-16T10:45:43;17.30;99.90
15083;DHT22;7640;53.116;6.878;2022-10-16T10:48:41;17.40;99.90
15083;DHT22;7640;53.116;6.878;2022-10-16T10:51:23;17.40;99.90
15083;DHT22;7640;53.116;6.878;2022-10-16T10:54:03;17.30;99.90
15083;DHT22;7640;53.116;6.878;2022-10-16T10:56:44;17.30;99.90
15083;DHT22;7640;53.116;6.878;2022-10-16T10:59:38;17.40;99.90
15083;DHT22;7640;53.116;6.878;2022-10-16T11:02:26;17.40;99.90
15083;DHT22;7640;53.116;6.878;2022-10-16T11:05:28;17.50;99.90
15083;DHT22;7640;53.116;6.878;2022-10-16T11:08:06;17.50;99.90
15083;DHT22;7640;53.116;6.878;2022-10-16T11:10:45;17.60;99.90
15083;DHT22;7640;53.116;6.878;2022-10-16T11:13:23;17.80;99.90
15083;DHT22;7640;53.116;6.878;2022-10-16T11:15:59;17.80;99.90
15083;DHT22;7640;53.116;6.878;2022-10-16T11:18:33;17.80;99.90
15083;DHT22;7640;53.116;6.878;2022-10-16T11:21:13;17.80;99.90
15083;DHT22;7640;53.116;6.878;2022-10-16T11:23:50;17.80;99.90
15083;DHT22;7640;53.116;6.878;2022-10-16T11:26:22;17.80;99.90
15083;DHT22;7640;53.116;6.878;2022-10-16T11:28:53;17.70;99.90
15083;DHT22;7640;53.116;6.878;2022-10-16T11:31:28;17.70;99.90
15083;DHT22;7640;53.116;6.878;2022-10-16T11:34:06;17.60;99.90
15083;DHT22;7640;53.116;6.878;2022-10-16T11:36:47;17.60;99.90
15083;DHT22;7640;53.116;6.878;2022-10-16T11:39:21;17.60;99.90
15083;DHT22;7640;53.116;6.878;2022-10-16T11:41:54;17.60;99.90
15083;DHT22;7640;53.116;6.878;2022-10-16T11:44:34;17.70;99.90
15083;DHT22;7640;53.116;6.878;2022-10-16T11:47:20;17.90;99.90
15083;DHT22;7640;53.116;6.878;2022-10-16T11:50:20;17.90;99.90
15083;DHT22;7640;53.116;6.878;2022-10-16T11:52:55;18.00;99.90
15083;DHT22;7640;53.116;6.878;2022-10-16T11:55:33;18.10;99.90
15083;DHT22;7640;53.116;6.878;2022-10-16T11:58:16;18.20;99.90
15083;DHT22;7640;53.116;6.878;2022-10-16T12:00:59;18.30;99.90
15083;DHT22;7640;53.116;6.878;2022-10-16T12:03:35;18.40;99.90
15083;DHT22;7640;53.116;6.878;2022-10-16T12:06:23;18.40;99.90
15083;DHT22;7640;53.116;6.878;2022-10-16T12:08:58;18.50;99.90
15083;DHT22;7640;53.116;6.878;2022-10-16T12:11:36;18.50;99.90
15083;DHT22;7640;53.116;6.878;2022-10-16T12:14:21;18.50;99.90
15083;DHT22;7640;53.116;6.878;2022-10-16T12:17:27;18.50;99.90
15083;DHT22;7640;53.116;6.878;2022-10-16T12:20:19;18.50;99.90
15083;DHT22;7640;53.116;6.878;2022-10-16T12:22:52;18.60;99.90
15083;DHT22;7640;53.116;6.878;2022-10-16T12:25:25;18.70;99.90
15083;DHT22;7640;53.116;6.878;2022-10-16T12:27:59;18.80;99.90
15083;DHT22;7640;53.116;6.878;2022-10-16T12:30:31;18.80;99.90
15083;DHT22;7640;53.116;6.878;2022-10-16T12:33:03;18.90;99.90
15083;DHT22;7640;53.116;6.878;2022-10-16T12:35:34;19.00;99.90
15083;DHT22;7640;53.116;6.878;2022-10-16T12:38:16;19.10;99.90
15083;DHT22;7640;53.116;6.878;2022-10-16T12:40:54;19.30;99.90
15083;DHT22;7640;53.116;6.878;2022-10-16T12:43:35;19.50;99.90
15083;DHT22;7640;53.116;6.878;2022-10-16T12:46:21;19.90;99.90
15083;DHT22;7640;53.116;6.878;2022-10-16T12:48:51;20.50;99.90
15083;DHT22;7640;53.116;6.878;2022-10-16T12:51:36;20.80;99.90
15083;DHT22;7640;53.116;6.878;2022-10-16T12:54:12;21.10;99.90
15083;DHT22;7640;53.116;6.878;2022-10-16T12:56:50;21.20;99.90
15083;DHT22;7640;53.116;6.878;2022-10-16T12:59:37;21.40;99.90
15083;DHT22;7640;53.116;6.878;2022-10-16T13:05:46;21.80;99.90
15083;DHT22;7640;53.116;6.878;2022-10-16T13:08:34;21.90;99.90
15083;DHT22;7640;53.116;6.878;2022-10-16T13:11:16;22.10;99.90
15083;DHT22;7640;53.116;6.878;2022-10-16T13:14:00;22.20;99.90
15083;DHT22;7640;53.116;6.878;2022-10-16T13:16:46;22.40;99.90
15083;DHT22;7640;53.116;6.878;2022-10-16T13:19:24;22.50;99.90
15083;DHT22;7640;53.116;6.878;2022-10-16T13:22:03;22.50;99.90
15083;DHT22;7640;53.116;6.878;2022-10-16T13:24:48;22.60;99.90
15083;DHT22;7640;53.116;6.878;2022-10-16T13:27:30;22.70;99.90
15083;DHT22;7640;53.116;6.878;2022-10-16T13:30:12;22.80;99.90
15083;DHT22;7640;53.116;6.878;2022-10-16T13:32:47;22.90;99.90
15083;DHT22;7640;53.116;6.878;2022-10-16T13:35:23;22.70;99.90
15083;DHT22;7640;53.116;6.878;2022-10-16T13:38:04;22.40;99.90
15083;DHT22;7640;53.116;6.878;2022-10-16T13:40:33;22.00;99.90
15083;DHT22;7640;53.116;6.878;2022-10-16T13:43:01;21.60;99.90
15083;DHT22;7640;53.116;6.878;2022-10-16T13:45:30;21.40;99.90
15083;DHT22;7640;53.116;6.878;2022-10-16T13:48:03;21.10;99.90
15083;DHT22;7640;53.116;6.878;2022-10-16T13:50:32;20.90;99.90
15083;DHT22;7640;53.116;6.878;2022-10-16T13:53:04;20.60;99.90
15083;DHT22;7640;53.116;6.878;2022-10-16T13:55:35;20.30;99.90
15083;DHT22;7640;53.116;6.878;2022-10-16T13:58:08;20.10;99.90
15083;DHT22;7640;53.116;6.878;2022-10-16T14:00:40;20.00;99.90
15083;DHT22;7640;53.116;6.878;2022-10-16T14:03:14;19.80;99.90
15083;DHT22;7640;53.116;6.878;2022-10-16T14:05:46;19.70;99.90
15083;DHT22;7640;53.116;6.878;2022-10-16T14:08:17;19.50;99.90
15083;DHT22;7640;53.116;6.878;2022-10-16T14:10:48;19.40;99.90
15083;DHT22;7640;53.116;6.878;2022-10-16T14:13:19;19.30;99.90
15083;DHT22;7640;53.116;6.878;2022-10-16T14:15:51;19.20;99.90
15083;DHT22;7640;53.116;6.878;2022-10-16T14:18:25;19.10;99.90
15083;DHT22;7640;53.116;6.878;2022-10-16T14:21:06;18.90;99.90
15083;DHT22;7640;53.116;6.878;2022-10-16T14:23:36;18.90;99.90
15083;DHT22;7640;53.116;6.878;2022-10-16T14:26:12;18.80;99.90
15083;DHT22;7640;53.116;6.878;2022-10-16T14:28:42;18.80;99.90
15083;DHT22;7640;53.116;6.878;2022-10-16T14:31:25;18.70;99.90
15083;DHT22;7640;53.116;6.878;2022-10-16T14:33:57;18.60;99.90
15083;DHT22;7640;53.116;6.878;2022-10-16T14:36:27;18.50;99.90
15083;DHT22;7640;53.116;6.878;2022-10-16T14:39:01;18.40;99.90
15083;DHT22;7640;53.116;6.878;2022-10-16T14:41:31;18.40;99.90
15083;DHT22;7640;53.116;6.878;2022-10-16T14:44:03;18.40;99.90
15083;DHT22;7640;53.116;6.878;2022-10-16T14:46:34;18.30;99.90
15083;DHT22;7640;53.116;6.878;2022-10-16T14:49:15;18.30;99.90
15083;DHT22;7640;53.116;6.878;2022-10-16T14:51:46;18.30;99.90
15083;DHT22;7640;53.116;6.878;2022-10-16T14:54:16;18.20;99.90
15083;DHT22;7640;53.116;6.878;2022-10-16T14:56:48;18.20;99.90
15083;DHT22;7640;53.116;6.878;2022-10-16T14:59:22;18.20;99.90
15083;DHT22;7640;53.116;6.878;2022-10-16T15:01:54;18.20;99.90
15083;DHT22;7640;53.116;6.878;2022-10-16T15:04:23;17.80;99.90
15083;DHT22;7640;53.116;6.878;2022-10-16T15:06:52;18.10;99.90
15083;DHT22;7640;53.116;6.878;2022-10-16T15:09:20;18.10;99.90
15083;DHT22;7640;53.116;6.878;2022-10-16T15:11:48;18.10;99.90
15083;DHT22;7640;53.116;6.878;2022-10-16T15:14:16;18.10;99.90
15083;DHT22;7640;53.116;6.878;2022-10-16T15:16:45;18.10;99.90
15083;DHT22;7640;53.116;6.878;2022-10-16T15:19:13;18.10;99.90
15083;DHT22;7640;53.116;6.878;2022-10-16T15:21:43;18.00;99.90
15083;DHT22;7640;53.116;6.878;2022-10-16T15:24:13;18.00;99.90
15083;DHT22;7640;53.116;6.878;2022-10-16T15:26:47;18.00;99.90
15083;DHT22;7640;53.116;6.878;2022-10-16T15:29:15;18.00;99.90
15083;DHT22;7640;53.116;6.878;2022-10-16T15:31:44;18.00;99.90
15083;DHT22;7640;53.116;6.878;2022-10-16T15:34:14;18.00;99.90
15083;DHT22;7640;53.116;6.878;2022-10-16T15:36:44;18.00;99.90
15083;DHT22;7640;53.116;6.878;2022-10-16T15:39:14;17.90;99.90
15083;DHT22;7640;53.116;6.878;2022-10-16T15:41:45;17.90;99.90
15083;DHT22;7640;53.116;6.878;2022-10-16T15:44:17;17.80;99.90
15083;DHT22;7640;53.116;6.878;2022-10-16T15:46:45;17.80;99.90
15083;DHT22;7640;53.116;6.878;2022-10-16T15:49:14;17.80;99.90
15083;DHT22;7640;53.116;6.878;2022-10-16T15:51:44;17.70;99.90
15083;DHT22;7640;53.116;6.878;2022-10-16T15:54:13;17.70;99.90
15083;DHT22;7640;53.116;6.878;2022-10-16T15:56:41;17.60;99.90
15083;DHT22;7640;53.116;6.878;2022-10-16T15:59:10;17.50;99.90
15083;DHT22;7640;53.116;6.878;2022-10-16T16:01:38;17.40;99.90
15083;DHT22;7640;53.116;6.878;2022-10-16T16:04:07;17.30;99.90
15083;DHT22;7640;53.116;6.878;2022-10-16T16:06:47;17.30;99.90
15083;DHT22;7640;53.116;6.878;2022-10-16T16:09:15;17.20;99.90
15083;DHT22;7640;53.116;6.878;2022-10-16T16:11:43;17.10;99.90
15083;DHT22;7640;53.116;6.878;2022-10-16T16:14:13;17.00;99.90
15083;DHT22;7640;53.116;6.878;2022-10-16T16:16:41;16.90;99.90
15083;DHT22;7640;53.116;6.878;2022-10-16T16:19:10;16.80;99.90
15083;DHT22;7640;53.116;6.878;2022-10-16T16:21:38;16.70;99.90
15083;DHT22;7640;53.116;6.878;2022-10-16T16:24:08;16.60;99.90
15083;DHT22;7640;53.116;6.878;2022-10-16T16:26:36;16.50;99.90
15083;DHT22;7640;53.116;6.878;2022-10-16T16:29:07;16.40;99.90
15083;DHT22;7640;53.116;6.878;2022-10-16T16:31:36;16.30;99.90
15083;DHT22;7640;53.116;6.878;2022-10-16T16:34:05;16.20;99.90
15083;DHT22;7640;53.116;6.878;2022-10-16T16:36:34;16.10;99.90
15083;DHT22;7640;53.116;6.878;2022-10-16T16:39:03;16.00;99.90
15083;DHT22;7640;53.116;6.878;2022-10-16T16:41:33;15.90;99.90
15083;DHT22;7640;53.116;6.878;2022-10-16T16:44:02;15.70;99.90
15083;DHT22;7640;53.116;6.878;2022-10-16T16:46:33;15.60;99.90
15083;DHT22;7640;53.116;6.878;2022-10-16T16:49:02;15.50;99.90
15083;DHT22;7640;53.116;6.878;2022-10-16T16:51:30;15.40;99.90
15083;DHT22;7640;53.116;6.878;2022-10-16T16:54:06;15.30;99.90
15083;DHT22;7640;53.116;6.878;2022-10-16T16:56:36;15.20;99.90
15083;DHT22;7640;53.116;6.878;2022-10-16T16:59:05;15.10;99.90
15083;DHT22;7640;53.116;6.878;2022-10-16T17:01:33;15.00;99.90
15083;DHT22;7640;53.116;6.878;2022-10-16T17:04:01;14.90;99.90
15083;DHT22;7640;53.116;6.878;2022-10-16T17:06:29;14.80;99.90
15083;DHT22;7640;53.116;6.878;2022-10-16T17:08:58;14.80;99.90
15083;DHT22;7640;53.116;6.878;2022-10-16T17:11:27;14.70;99.90
15083;DHT22;7640;53.116;6.878;2022-10-16T17:13:58;14.60;99.90
15083;DHT22;7640;53.116;6.878;2022-10-16T17:16:28;14.60;99.90
15083;DHT22;7640;53.116;6.878;2022-10-16T17:19:01;14.50;99.90
15083;DHT22;7640;53.116;6.878;2022-10-16T17:21:30;14.40;99.90
15083;DHT22;7640;53.116;6.878;2022-10-16T17:23:59;14.40;99.90
15083;DHT22;7640;53.116;6.878;2022-10-16T17:26:27;14.30;99.90
15083;DHT22;7640;53.116;6.878;2022-10-16T17:28:59;14.20;99.90